Aviation Digital Data Service (ADDS)

Output produced by METARs form (1129 UTC 25 June 2019)
found at http://www.aviationweather.gov/metar/data/
 
Forecast for: KFAT (FRESNO , CA, US)
Text: KFAT 251120Z 2512/2612 30009KT P6SM SCT200
Forecast period: 1200 UTC 25 June 2019 to 1200 UTC 26 June 2019
Forecast type: FROM: standard forecast or significant change
Winds: from the WNW (300 degrees) at 10 MPH (9 knots; 4.6 m/s)
Visibility: 6 or more miles 10+ km)
Ceiling: at least 12,000 feet AGL
Clouds: scattered clouds at 20000 feet AGL
Weather: no significant weather forecast for this period